Time;durP1;ratioP1;P1;durP2;ratioP2;P2;SDS_P1;SDS_P2;PMS_P1;PMS_P2;Temp;Humidity;BMP_temperature;BMP_pressure;BME280_temperature;BME280_humidity;BME280_pressure;Samples;Min_cycle;Max_cycle;Signal;HPM_P1;HPM_P2
2022/08/21 00:00:31;;;;;;;5.35;3.67;;;;;;;26.09;41.05;100145.00;2096457;28;20052;-70
2022/08/21 00:01:54;;;;;;;11.93;3.83;;;;;;;26.08;40.93;100145.97;2103233;28;20132;-70
2022/08/21 00:03:16;;;;;;;5.53;3.13;;;;;;;26.06;41.16;100134.34;2100790;28;20169;-70
2022/08/21 00:04:39;;;;;;;5.50;3.55;;;;;;;26.05;41.24;100143.44;2099355;28;20531;-69
2022/08/21 00:06:04;;;;;;;8.18;3.47;;;;;;;26.05;41.14;100137.16;2109421;28;20048;-70
2022/08/21 00:07:26;;;;;;;5.90;3.10;;;;;;;26.04;41.08;100139.00;2095829;28;20044;-70
2022/08/21 00:08:48;;;;;;;5.30;3.13;;;;;;;26.03;40.84;100133.66;2093990;28;20048;-70
2022/08/21 00:10:11;;;;;;;5.60;3.28;;;;;;;26.02;40.85;100135.50;2086039;28;20053;-70
2022/08/21 00:11:34;;;;;;;4.78;2.97;;;;;;;26.00;41.02;100136.53;2087744;28;20086;-70
2022/08/21 00:12:57;;;;;;;8.50;3.60;;;;;;;25.95;41.30;100133.22;2091959;28;20052;-70
2022/08/21 00:14:18;;;;;;;7.57;3.22;;;;;;;25.91;41.40;100131.69;2094052;28;20044;-70
2022/08/21 00:15:43;;;;;;;5.97;4.10;;;;;;;25.91;41.73;100124.44;2094570;28;20048;-70
2022/08/21 00:17:07;;;;;;;5.78;3.92;;;;;;;25.96;42.30;100125.03;2094702;28;20058;-70
2022/08/21 00:18:29;;;;;;;7.50;3.70;;;;;;;26.01;42.74;100125.63;2094126;28;20160;-70
2022/08/21 00:19:51;;;;;;;6.45;3.78;;;;;;;26.05;42.89;100116.41;2089281;28;20135;-70
2022/08/21 00:21:16;;;;;;;7.63;3.80;;;;;;;26.07;43.07;100125.28;2096913;28;20051;-70
2022/08/21 00:22:38;;;;;;;9.13;3.75;;;;;;;26.05;43.33;100116.41;2096798;28;20067;-70
2022/08/21 00:24:00;;;;;;;7.82;3.85;;;;;;;26.04;43.16;100119.19;2093964;28;20629;-70
2022/08/21 00:25:23;;;;;;;8.75;3.45;;;;;;;26.03;43.33;100123.72;2101195;28;20139;-70
2022/08/21 00:26:44;;;;;;;7.25;3.85;;;;;;;26.00;43.83;100113.06;2090310;28;20055;-70
2022/08/21 00:28:07;;;;;;;8.07;4.00;;;;;;;26.00;43.74;100120.31;2089396;28;20179;-70
2022/08/21 00:29:30;;;;;;;6.82;3.65;;;;;;;26.01;43.77;100119.34;2088522;28;20059;-70
2022/08/21 00:30:51;;;;;;;11.23;4.47;;;;;;;26.03;44.26;100117.44;2085979;28;20041;-70
2022/08/21 00:32:14;;;;;;;6.20;3.97;;;;;;;26.03;44.43;100123.72;2090803;28;20067;-70
2022/08/21 00:33:37;;;;;;;7.10;3.58;;;;;;;26.07;44.91;100122.56;2077583;28;20140;-70
2022/08/21 00:34:58;;;;;;;7.43;4.10;;;;;;;26.11;44.86;100121.44;2083344;28;20053;-70
2022/08/21 00:36:22;;;;;;;6.53;3.85;;;;;;;26.15;44.65;100116.72;2078434;28;20095;-70
2022/08/21 00:37:45;;;;;;;6.82;3.75;;;;;;;26.14;44.61;100123.94;2075365;28;20148;-70
2022/08/21 00:39:09;;;;;;;7.35;3.92;;;;;;;26.12;44.53;100123.16;2082938;28;20075;-71
2022/08/21 00:40:38;;;;;;;7.45;4.05;;;;;;;26.12;44.73;100123.16;2089943;28;20087;-71
2022/08/21 00:42:01;;;;;;;7.32;3.80;;;;;;;26.09;44.98;100131.47;2080136;28;20858;-71
2022/08/21 00:43:28;;;;;;;9.68;4.55;;;;;;;26.10;45.15;100127.81;2091299;28;20439;-71
2022/08/21 00:44:50;;;;;;;8.05;4.50;;;;;;;26.12;45.73;100123.16;2085891;28;20098;-70
2022/08/21 00:46:12;;;;;;;6.57;4.05;;;;;;;26.13;46.03;100127.63;2090349;28;20640;-71
2022/08/21 00:47:35;;;;;;;7.32;3.97;;;;;;;26.17;46.71;100121.09;2089168;28;20060;-70
2022/08/21 00:48:57;;;;;;;7.78;4.30;;;;;;;26.22;46.76;100118.09;2092024;28;20051;-70
2022/08/21 00:50:20;;;;;;;10.02;4.38;;;;;;;26.25;47.68;100123.38;2093198;28;20072;-70
2022/08/21 00:51:49;;;;;;;7.70;4.72;;;;;;;26.31;48.39;100114.00;2094044;28;20151;-70
2022/08/21 00:53:11;;;;;;;9.40;5.20;;;;;;;26.37;48.78;100114.50;2096408;28;20470;-70
2022/08/21 00:54:35;;;;;;;7.90;4.60;;;;;;;26.42;49.10;100109.69;2087569;28;20044;-72
2022/08/21 00:55:59;;;;;;;10.07;4.50;;;;;;;26.45;48.93;100114.06;2088178;28;20519;-71
2022/08/21 00:57:27;;;;;;;8.88;4.70;;;;;;;26.44;48.97;100120.44;2085430;28;20157;-70
2022/08/21 00:58:50;;;;;;;8.80;4.65;;;;;;;26.45;48.78;100119.47;2092989;28;20068;-70
2022/08/21 01:00:17;;;;;;;10.52;4.88;;;;;;;26.40;48.78;100113.44;2087824;28;20444;-70
2022/08/21 01:01:40;;;;;;;8.68;4.63;;;;;;;26.33;48.74;100109.34;2086293;28;20045;-70
2022/08/21 01:03:05;;;;;;;6.82;4.03;;;;;;;26.27;48.75;100118.72;2088959;28;20721;-70
2022/08/21 01:04:28;;;;;;;7.57;4.55;;;;;;;26.23;48.64;100113.56;2088282;28;20536;-70
2022/08/21 01:05:51;;;;;;;8.23;4.75;;;;;;;26.19;48.98;100107.44;2088074;28;20056;-70
2022/08/21 01:07:14;;;;;;;8.13;4.03;;;;;;;26.17;49.16;100112.97;2084376;28;20072;-71
2022/08/21 01:08:37;;;;;;;7.60;4.35;;;;;;;26.19;49.10;100113.72;2094509;28;20067;-70
2022/08/21 01:09:58;;;;;;;8.02;4.55;;;;;;;26.20;48.93;100114.59;2085237;28;20105;-70
2022/08/21 01:11:21;;;;;;;9.05;4.57;;;;;;;26.18;48.67;100117.41;2090337;28;20050;-70
2022/08/21 01:12:43;;;;;;;10.07;4.85;;;;;;;26.16;48.62;100113.03;2088401;28;20614;-70
2022/08/21 01:14:05;;;;;;;8.55;4.60;;;;;;;26.12;48.36;100106.09;2093448;28;20063;-70
2022/08/21 01:15:31;;;;;;;9.05;4.60;;;;;;;26.10;48.41;100105.28;2090722;28;20036;-70
2022/08/21 01:16:56;;;;;;;9.32;4.88;;;;;;;26.03;48.82;100110.19;2090895;28;20535;-69
2022/08/21 01:18:20;;;;;;;9.07;4.30;;;;;;;25.96;49.09;100106.09;2088887;28;20091;-71
2022/08/21 01:19:44;;;;;;;7.88;4.70;;;;;;;25.91;49.15;100108.22;2093170;28;20048;-70
2022/08/21 01:21:15;;;;;;;12.38;4.43;;;;;;;25.89;49.16;100111.94;2093883;28;20055;-70
2022/08/21 01:22:38;;;;;;;5.95;3.67;;;;;;;25.85;48.80;100108.56;2081621;28;20044;-70
2022/08/21 01:24:00;;;;;;;6.05;3.80;;;;;;;25.80;48.24;100106.09;2089072;28;20042;-70
2022/08/21 01:25:22;;;;;;;8.48;3.72;;;;;;;25.76;47.83;100109.09;2088244;28;20057;-70
2022/08/21 01:26:44;;;;;;;6.97;4.30;;;;;;;25.71;47.92;100105.78;2100825;28;20619;-70
2022/08/21 01:28:13;;;;;;;7.78;4.35;;;;;;;25.69;48.17;100104.97;2102769;28;20082;-70
2022/08/21 01:29:40;;;;;;;8.68;5.00;;;;;;;25.68;48.25;100108.63;2089462;28;20072;-70
2022/08/21 01:31:03;;;;;;;10.27;4.63;;;;;;;25.63;48.83;100114.31;2085507;28;20048;-70
2022/08/21 01:32:27;;;;;;;8.57;4.53;;;;;;;25.60;48.87;100111.78;2085729;28;20516;-70
2022/08/21 01:33:49;;;;;;;10.40;5.22;;;;;;;25.54;49.61;100112.09;2076831;28;20060;-70
2022/08/21 01:35:13;;;;;;;12.73;5.45;;;;;;;25.52;49.98;100119.44;2082759;28;20483;-70
2022/08/21 01:36:38;;;;;;;9.88;5.00;;;;;;;25.54;50.50;100116.63;2085576;28;20077;-70
2022/08/21 01:38:01;;;;;;;15.85;5.57;;;;;;;25.55;50.74;100112.97;2084859;28;20358;-70
2022/08/21 01:39:22;;;;;;;9.57;5.10;;;;;;;25.55;50.99;100112.97;2083987;28;20056;-70
2022/08/21 01:40:45;;;;;;;10.60;4.75;;;;;;;25.55;51.42;100115.66;2090361;28;20513;-70
2022/08/21 01:42:07;;;;;;;8.55;4.95;;;;;;;25.51;51.31;100115.00;2091682;28;20087;-70
2022/08/21 01:43:29;;;;;;;;;;;;;;;25.41;51.58;100111.03;2092999;28;20122;-70
2022/08/21 01:44:51;;;;;;;8.52;5.10;;;;;;;25.39;51.31;100121.09;2093662;28;20028;-70
2022/08/21 01:46:14;;;;;;;9.68;4.95;;;;;;;25.40;51.44;100118.28;2095707;28;20046;-70
2022/08/21 01:47:37;;;;;;;8.70;4.40;;;;;;;25.42;51.31;100116.38;2085714;28;20184;-70
2022/08/21 01:49:00;;;;;;;6.75;4.35;;;;;;;25.47;51.34;100113.41;2077137;28;20044;-70
2022/08/21 01:50:23;;;;;;;10.07;4.68;;;;;;;25.47;51.16;100108.00;2090953;28;20044;-70
2022/08/21 01:51:46;;;;;;;12.43;6.35;;;;;;;25.46;51.10;100111.69;2086987;28;20057;-69
2022/08/21 01:53:09;;;;;;;7.85;4.32;;;;;;;25.46;51.38;100113.50;2085099;28;20139;-70
2022/08/21 01:54:30;;;;;;;9.27;4.75;;;;;;;25.47;51.44;100107.16;2085400;28;20045;-70
2022/08/21 01:55:53;;;;;;;7.15;4.30;;;;;;;25.45;51.36;100100.94;2091786;28;20059;-70
2022/08/21 01:57:14;;;;;;;9.43;4.82;;;;;;;25.46;50.78;100106.28;2094323;28;20071;-70
2022/08/21 01:58:37;;;;;;;;;;;;;;;25.41;50.87;100092.13;2094139;28;20520;-70
2022/08/21 01:59:58;;;;;;;8.98;4.80;;;;;;;25.36;50.71;100100.50;2092477;28;19964;-70
2022/08/21 02:01:21;;;;;;;9.85;4.95;;;;;;;25.32;50.97;100098.94;2085436;28;20049;-70
2022/08/21 02:02:42;;;;;;;8.93;5.60;;;;;;;25.32;51.18;100092.66;2085380;28;20064;-70
2022/08/21 02:04:05;;;;;;;11.18;4.75;;;;;;;25.33;51.72;100089.88;2084943;28;20095;-70
2022/08/21 02:05:26;;;;;;;8.38;5.07;;;;;;;25.36;51.31;100094.22;2093736;28;20044;-70
2022/08/21 02:06:51;;;;;;;6.85;4.35;;;;;;;25.37;51.21;100101.38;2082920;28;20052;-70
2022/08/21 02:08:12;;;;;;;7.70;4.35;;;;;;;25.35;51.66;100095.16;2082970;28;20068;-70
2022/08/21 02:09:35;;;;;;;9.50;4.82;;;;;;;25.32;51.99;100093.53;2082513;28;20045;-70
2022/08/21 02:10:57;;;;;;;8.93;4.55;;;;;;;25.32;51.88;100095.34;2090705;28;20537;-71
2022/08/21 02:12:19;;;;;;;12.95;5.22;;;;;;;25.33;52.12;100092.56;2093586;28;20064;-70
2022/08/21 02:13:41;;;;;;;8.57;4.82;;;;;;;25.33;52.64;100095.28;2077104;28;20048;-69
2022/08/21 02:15:04;;;;;;;11.35;5.70;;;;;;;25.32;52.87;100093.53;2086143;28;20052;-70
2022/08/21 02:16:27;;;;;;;10.88;5.18;;;;;;;25.31;53.01;100086.38;2092739;28;20047;-70
2022/08/21 02:17:51;;;;;;;9.13;4.97;;;;;;;25.30;53.21;100094.56;2087747;28;20568;-71
2022/08/21 02:19:15;;;;;;;9.85;5.18;;;;;;;25.26;53.55;100087.59;2090415;28;20132;-71
2022/08/21 02:20:39;;;;;;;13.48;5.50;;;;;;;25.24;53.66;100092.19;2087276;28;20103;-70
2022/08/21 02:22:03;;;;;;;9.45;5.03;;;;;;;25.23;54.14;100091.31;2090351;28;20263;-70
2022/08/21 02:23:26;;;;;;;9.45;5.10;;;;;;;25.24;53.94;100090.38;2093933;28;20090;-71
2022/08/21 02:24:49;;;;;;;7.95;5.10;;;;;;;25.19;54.29;100089.75;2092602;28;20088;-70
2022/08/21 02:26:12;;;;;;;9.40;5.43;;;;;;;25.06;54.67;100083.28;2089405;28;20152;-70
2022/08/21 02:27:40;;;;;;;9.32;4.95;;;;;;;24.98;55.09;100089.09;2092040;28;20067;-70
2022/08/21 02:29:03;;;;;;;10.23;4.80;;;;;;;24.98;55.24;100093.63;2101990;28;20102;-70
2022/08/21 02:30:28;;;;;;;11.05;5.47;;;;;;;25.05;55.43;100083.38;2096866;28;20436;-70
2022/08/21 02:31:51;;;;;;;10.60;5.57;;;;;;;25.08;55.27;100086.75;2086832;28;20053;-70
2022/08/21 02:33:13;;;;;;;12.88;5.38;;;;;;;25.12;55.40;100091.06;2092103;28;20072;-70
2022/08/21 02:34:35;;;;;;;8.65;4.97;;;;;;;25.12;55.20;100096.47;2095121;28;20056;-70
2022/08/21 02:36:00;;;;;;;11.02;5.97;;;;;;;25.13;55.16;100091.94;2094922;28;20191;-70
2022/08/21 02:37:24;;;;;;;9.95;5.97;;;;;;;25.13;54.86;100100.91;2102909;28;20769;-70
2022/08/21 02:38:46;;;;;;;12.40;5.00;;;;;;;25.10;55.29;100094.78;2089624;28;20072;-70
2022/08/21 02:40:10;;;;;;;12.63;5.75;;;;;;;25.01;55.70;100096.16;2098210;28;20047;-70
2022/08/21 02:41:33;;;;;;;8.77;5.05;;;;;;;24.90;55.93;100103.97;2095256;28;20064;-70
2022/08/21 02:42:54;;;;;;;10.88;5.47;;;;;;;24.90;56.15;100090.47;2093975;28;20048;-70
2022/08/21 02:44:17;;;;;;;10.70;5.40;;;;;;;24.91;56.24;100089.53;2085937;28;20131;-70
2022/08/21 02:45:41;;;;;;;7.68;5.13;;;;;;;24.94;55.75;100087.50;2091272;28;20467;-70
2022/08/21 02:47:04;;;;;;;8.82;4.78;;;;;;;24.99;55.74;100095.38;2095164;28;20055;-70
2022/08/21 02:48:28;;;;;;;7.70;5.30;;;;;;;25.03;54.99;100091.53;2101440;28;20523;-70
2022/08/21 02:49:51;;;;;;;9.82;5.20;;;;;;;25.07;54.96;100094.97;2096748;28;20100;-70
2022/08/21 02:51:17;;;;;;;10.07;5.22;;;;;;;25.10;54.56;100097.47;2105314;28;21633;-70
2022/08/21 02:52:41;;;;;;;9.13;4.53;;;;;;;25.10;54.69;100098.34;2091071;28;20139;-70
2022/08/21 02:54:04;;;;;;;10.40;4.85;;;;;;;25.09;54.66;100099.31;2091428;28;20551;-71
2022/08/21 02:55:29;;;;;;;9.70;4.70;;;;;;;25.08;54.38;100092.16;2095236;28;20068;-70
2022/08/21 02:56:52;;;;;;;9.43;5.55;;;;;;;25.06;54.31;100093.22;2107599;28;20055;-70
2022/08/21 02:58:15;;;;;;;9.38;5.18;;;;;;;25.03;54.41;100096.94;2091468;28;20140;-70
2022/08/21 02:59:39;;;;;;;11.60;5.47;;;;;;;24.97;54.78;100090.06;2092678;28;20139;-70
2022/08/21 03:01:01;;;;;;;9.18;5.07;;;;;;;24.92;54.91;100093.97;2099468;28;20424;-70
2022/08/21 03:02:22;;;;;;;12.35;5.35;;;;;;;24.83;55.39;100095.28;2101775;28;20048;-70
2022/08/21 03:03:49;;;;;;;11.55;5.57;;;;;;;24.72;56.20;100089.59;2092018;28;20051;-70
2022/08/21 03:05:10;;;;;;;9.15;5.18;;;;;;;24.65;56.29;100095.41;2098294;28;20144;-70
2022/08/21 03:06:33;;;;;;;9.50;5.45;;;;;;;24.59;56.64;100094.78;2086614;28;20040;-70
2022/08/21 03:07:58;;;;;;;9.18;5.68;;;;;;;24.59;56.78;100092.09;2096838;28;20400;-70
2022/08/21 03:09:19;;;;;;;12.35;5.95;;;;;;;24.63;56.51;100092.78;2101549;28;20040;-70
2022/08/21 03:10:44;;;;;;;12.65;5.55;;;;;;;24.65;56.66;100090.00;2095892;28;20051;-70
2022/08/21 03:12:07;;;;;;;13.90;5.55;;;;;;;24.66;56.46;100097.16;2098500;28;20132;-70
2022/08/21 03:13:28;;;;;;;18.27;5.85;;;;;;;24.63;56.59;100090.09;2090026;28;20090;-70
2022/08/21 03:14:51;;;;;;;8.85;4.80;;;;;;;24.58;56.50;100100.25;2096279;28;20135;-70
2022/08/21 03:16:14;;;;;;;14.50;5.00;;;;;;;24.58;56.51;100089.47;2091647;28;20514;-70
2022/08/21 03:17:36;;;;;;;9.05;4.60;;;;;;;24.61;55.93;100094.72;2086495;28;20128;-70
2022/08/21 03:18:59;;;;;;;9.60;4.88;;;;;;;24.64;56.01;100094.53;2104069;28;20064;-70
2022/08/21 03:20:23;;;;;;;7.50;4.88;;;;;;;24.67;55.36;100096.22;2101143;28;20036;-70
2022/08/21 03:21:46;;;;;;;11.43;5.82;;;;;;;24.68;55.30;100087.16;2095025;28;20059;-70
2022/08/21 03:23:09;;;;;;;9.20;5.18;;;;;;;24.70;55.06;100098.72;2100519;28;20107;-70
2022/08/21 03:24:32;;;;;;;9.70;5.43;;;;;;;24.69;55.32;100097.84;2093691;28;20055;-70
2022/08/21 03:25:53;;;;;;;9.13;5.18;;;;;;;24.71;55.53;100095.97;2095405;28;20563;-71
2022/08/21 03:27:16;;;;;;;10.63;4.72;;;;;;;24.72;55.76;100099.53;2094492;28;20672;-71
2022/08/21 03:28:39;;;;;;;9.75;4.75;;;;;;;24.71;55.26;100095.97;2093762;28;20058;-70
2022/08/21 03:30:02;;;;;;;10.20;5.40;;;;;;;24.71;55.29;100095.97;2094389;28;20041;-70
2022/08/21 03:31:26;;;;;;;12.82;5.82;;;;;;;24.68;55.44;100100.66;2078058;28;20041;-70
2022/08/21 03:32:48;;;;;;;11.30;5.00;;;;;;;24.67;55.64;100098.91;2090691;28;20049;-70
2022/08/21 03:34:10;;;;;;;9.68;4.57;;;;;;;24.67;55.47;100096.22;2102818;28;20075;-70
2022/08/21 03:35:32;;;;;;;12.10;5.38;;;;;;;24.68;55.48;100097.97;2096670;28;20052;-70
2022/08/21 03:36:54;;;;;;;14.13;6.00;;;;;;;24.67;55.71;100099.78;2085520;28;20406;-70
2022/08/21 03:38:19;;;;;;;11.73;5.22;;;;;;;24.70;55.92;100101.44;2091906;28;20722;-70
2022/08/21 03:39:43;;;;;;;11.25;4.95;;;;;;;24.69;55.79;100099.69;2098933;28;20046;-70
2022/08/21 03:41:05;;;;;;;11.43;5.45;;;;;;;24.69;56.07;100103.25;2097669;28;20101;-70
2022/08/21 03:42:27;;;;;;;14.38;5.50;;;;;;;24.67;56.13;100098.91;2100385;28;20508;-70
2022/08/21 03:43:50;;;;;;;12.40;5.38;;;;;;;24.67;56.58;100093.50;2094576;28;20068;-70
2022/08/21 03:45:11;;;;;;;8.13;5.13;;;;;;;24.65;56.95;100098.09;2100495;28;20060;-70
2022/08/21 03:46:34;;;;;;;12.13;5.47;;;;;;;24.65;56.73;100106.22;2097080;28;20048;-70
2022/08/21 03:47:57;;;;;;;9.70;4.88;;;;;;;24.65;56.77;100104.38;2088629;28;20032;-70
2022/08/21 03:49:20;;;;;;;12.43;5.47;;;;;;;24.68;57.06;100106.91;2094430;28;20055;-71
2022/08/21 03:50:46;;;;;;;14.25;5.65;;;;;;;24.71;57.11;100105.88;2101885;28;20067;-70
2022/08/21 03:52:09;;;;;;;15.90;5.30;;;;;;;24.72;57.49;100104.94;2105725;28;20063;-70
2022/08/21 03:53:33;;;;;;;12.80;5.20;;;;;;;24.73;57.79;100101.28;2097126;28;20233;-70
2022/08/21 03:54:56;;;;;;;13.48;5.60;;;;;;;24.74;58.03;100101.22;2094650;28;20047;-70
2022/08/21 03:56:18;;;;;;;19.15;6.85;;;;;;;24.77;58.39;100102.84;2093777;28;20083;-70
2022/08/21 03:57:40;;;;;;;10.88;5.30;;;;;;;24.80;58.40;100103.56;2101139;28;20099;-70
2022/08/21 03:59:03;;;;;;;14.30;5.53;;;;;;;24.84;58.30;100104.28;2088960;28;20128;-71
2022/08/21 04:00:26;;;;;;;11.20;5.90;;;;;;;24.88;58.21;100101.31;2091908;28;20056;-70
2022/08/21 04:01:56;;;;;;;12.10;4.63;;;;;;;24.91;58.25;100101.19;2094254;28;20584;-70
2022/08/21 04:03:19;;;;;;;12.43;5.30;;;;;;;24.93;58.30;100103.81;2098534;28;20509;-71
2022/08/21 04:04:41;;;;;;;11.93;5.10;;;;;;;24.96;58.59;100096.41;2094617;28;20055;-70
2022/08/21 04:06:03;;;;;;;14.07;6.13;;;;;;;25.01;58.51;100096.16;2094386;28;20402;-70
2022/08/21 04:07:25;;;;;;;13.63;5.32;;;;;;;25.07;58.38;100093.16;2090938;28;20072;-70
2022/08/21 04:08:49;;;;;;;13.13;5.85;;;;;;;25.13;58.39;100094.63;2094372;28;20121;-71
2022/08/21 04:10:11;;;;;;;13.90;5.80;;;;;;;25.13;58.43;100095.50;2096355;28;20163;-70
2022/08/21 04:11:32;;;;;;;12.80;5.32;;;;;;;25.10;58.90;100090.25;2095816;28;20048;-70
2022/08/21 04:12:55;;;;;;;13.18;5.80;;;;;;;25.09;58.72;100093.91;2100648;28;20105;-70
2022/08/21 04:14:18;;;;;;;11.18;4.35;;;;;;;25.06;58.92;100095.91;2096457;28;20052;-70
2022/08/21 04:15:40;;;;;;;10.02;5.10;;;;;;;25.06;59.07;100091.41;2101683;28;20400;-70
2022/08/21 04:17:03;;;;;;;9.98;5.32;;;;;;;25.10;58.74;100097.47;2098303;28;20043;-70
2022/08/21 04:18:24;;;;;;;14.25;5.22;;;;;;;25.14;58.75;100094.53;2095962;28;20131;-70
2022/08/21 04:19:47;;;;;;;10.50;4.95;;;;;;;25.21;59.06;100100.47;2092831;28;20109;-70
2022/08/21 04:21:11;;;;;;;11.07;4.72;;;;;;;25.33;58.71;100094.41;2093838;28;20177;-70
2022/08/21 04:22:35;;;;;;;13.18;4.35;;;;;;;25.47;58.36;100096.34;2095184;28;20631;-70
2022/08/21 04:24:00;;;;;;;12.05;5.00;;;;;;;25.61;58.16;100094.59;2095975;28;20057;-70
2022/08/21 04:25:23;;;;;;;13.82;4.53;;;;;;;25.73;58.17;100098.47;2105967;28;20048;-70
2022/08/21 04:26:45;;;;;;;10.57;4.97;;;;;;;25.83;58.03;100102.34;2094147;28;20408;-70
2022/08/21 04:28:07;;;;;;;11.85;5.40;;;;;;;25.94;57.98;100099.03;2098492;28;20151;-70
2022/08/21 04:29:29;;;;;;;10.25;4.35;;;;;;;26.04;57.47;100100.25;2093740;28;20666;-70
2022/08/21 04:30:53;;;;;;;12.73;4.93;;;;;;;26.15;57.40;100103.19;2090273;28;20471;-70
2022/08/21 04:32:23;;;;;;;8.95;4.60;;;;;;;26.30;56.89;100101.44;2085455;28;20444;-70
2022/08/21 04:33:46;;;;;;;10.50;6.00;;;;;;;26.42;56.72;100101.56;2094469;28;20083;-70
2022/08/21 04:35:10;;;;;;;8.13;3.92;;;;;;;26.52;56.34;100093.75;2093369;28;20539;-70
2022/08/21 04:36:33;;;;;;;12.80;4.80;;;;;;;26.64;55.90;100101.16;2097558;28;20040;-70
2022/08/21 04:37:55;;;;;;;13.35;4.40;;;;;;;26.72;55.58;100100.66;2096784;28;20085;-70
2022/08/21 04:39:19;;;;;;;;;;;;;;;26.79;55.17;100089.34;2094530;28;20052;-70
2022/08/21 04:40:41;;;;;;;11.10;4.57;;;;;;;26.90;54.96;100092.31;2093640;28;19956;-70
2022/08/21 04:42:04;;;;;;;9.38;4.22;;;;;;;27.03;54.57;100094.25;2095932;28;20056;-70
2022/08/21 04:43:28;;;;;;;7.63;4.10;;;;;;;27.15;54.44;100091.63;2085859;28;20053;-70
2022/08/21 04:44:49;;;;;;;12.40;4.15;;;;;;;27.27;54.09;100087.25;2089699;28;20040;-70
2022/08/21 04:46:12;;;;;;;8.27;3.75;;;;;;;27.39;53.72;100089.16;2091913;28;20041;-70
2022/08/21 04:47:33;;;;;;;13.52;4.40;;;;;;;27.51;53.50;100082.94;2091216;28;20408;-70
2022/08/21 04:48:55;;;;;;;9.20;3.90;;;;;;;27.61;53.38;100086.84;2093849;28;20036;-70
2022/08/21 04:50:17;;;;;;;9.02;3.97;;;;;;;27.74;53.09;100079.66;2097661;28;20044;-70
2022/08/21 04:52:00;;;;;;;9.93;3.95;;;;;;;27.90;52.99;100081.31;2095246;28;20195;-70
2022/08/21 04:53:27;;;;;;;7.88;3.97;;;;;;;28.02;52.73;100081.38;2097004;28;20402;-70
2022/08/21 04:54:51;;;;;;;12.73;4.57;;;;;;;28.17;52.63;100078.63;2097257;28;20139;-70
2022/08/21 04:56:25;;;;;;;11.57;4.00;;;;;;;28.29;52.53;100081.34;2096838;28;20052;-70
2022/08/21 04:57:47;;;;;;;9.73;4.15;;;;;;;28.41;52.42;100082.38;2102919;28;20044;-70
2022/08/21 04:59:13;;;;;;;;;;;;;;;28.44;52.21;100083.03;2102196;28;20052;-70
2022/08/21 05:00:34;;;;;;;8.20;3.60;;;;;;;28.51;52.32;100080.75;2097701;28;19920;-69
2022/08/21 05:01:57;;;;;;;10.45;4.80;;;;;;;28.53;52.22;100082.41;2094828;28;20044;-70
2022/08/21 05:03:21;;;;;;;13.77;3.40;;;;;;;28.63;52.32;100073.59;2099095;28;20067;-70
2022/08/21 05:04:47;;;;;;;11.13;4.35;;;;;;;28.77;52.16;100079.84;2100827;28;20047;-70
2022/08/21 05:06:12;;;;;;;8.48;4.03;;;;;;;28.94;51.90;100070.50;2100715;28;20496;-70
2022/08/21 05:07:36;;;;;;;7.43;3.65;;;;;;;29.10;51.57;100082.00;2098907;28;20092;-70
2022/08/21 05:09:00;;;;;;;11.40;4.60;;;;;;;29.26;50.94;100088.09;2097424;28;20082;-70
2022/08/21 05:10:23;;;;;;;9.50;3.85;;;;;;;29.38;50.73;100086.34;2096446;28;20486;-70
2022/08/21 05:11:46;;;;;;;6.95;3.53;;;;;;;29.47;50.43;100082.94;2101072;28;20047;-70
2022/08/21 05:13:09;;;;;;;11.10;3.75;;;;;;;29.58;50.16;100091.19;2097408;28;20791;-70
2022/08/21 05:14:32;;;;;;;9.90;3.35;;;;;;;29.67;49.42;100090.50;2095710;28;20123;-70
2022/08/21 05:15:55;;;;;;;11.25;3.70;;;;;;;29.77;49.03;100079.81;2100910;28;20075;-70
2022/08/21 05:17:18;;;;;;;6.07;3.35;;;;;;;29.91;48.36;100081.50;2104868;28;20043;-70
2022/08/21 05:18:39;;;;;;;7.95;3.65;;;;;;;30.06;48.34;100086.66;2101109;28;20044;-70
2022/08/21 05:20:03;;;;;;;8.98;3.50;;;;;;;30.19;47.87;100091.19;2095881;28;20055;-70
2022/08/21 05:21:24;;;;;;;8.48;3.88;;;;;;;30.31;47.64;100082.94;2093958;28;20048;-69
2022/08/21 05:22:47;;;;;;;7.80;3.22;;;;;;;30.45;47.05;100081.88;2093149;28;20052;-70
2022/08/21 05:24:10;;;;;;;7.82;3.67;;;;;;;30.59;46.52;100083.56;2098912;28;20117;-70
2022/08/21 05:25:34;;;;;;;12.18;3.75;;;;;;;30.72;46.05;100087.06;2096901;28;20127;-70
2022/08/21 05:26:56;;;;;;;15.48;3.55;;;;;;;30.83;45.83;100084.34;2093651;28;20441;-70
2022/08/21 05:28:22;;;;;;;11.93;3.70;;;;;;;30.93;44.85;100082.63;2087172;28;20056;-70
2022/08/21 05:29:45;;;;;;;13.32;3.45;;;;;;;31.01;44.45;100082.88;2092334;28;20563;-71
2022/08/21 05:31:06;;;;;;;9.85;3.13;;;;;;;31.09;44.43;100082.31;2092603;28;20108;-70
2022/08/21 05:32:28;;;;;;;7.50;3.70;;;;;;;31.20;44.08;100072.25;2094442;28;20049;-71
2022/08/21 05:33:50;;;;;;;13.18;3.90;;;;;;;31.34;43.52;100078.44;2087191;28;20497;-70
2022/08/21 05:35:13;;;;;;;13.40;4.28;;;;;;;31.44;43.42;100080.28;2087937;28;20041;-71
2022/08/21 05:36:34;;;;;;;14.75;4.20;;;;;;;31.58;43.02;100076.41;2099261;28;20044;-70
2022/08/21 05:37:58;;;;;;;8.00;3.75;;;;;;;31.74;42.73;100078.78;2087890;28;20052;-70
2022/08/21 05:39:19;;;;;;;8.55;3.95;;;;;;;31.89;42.09;100080.25;2099716;28;20378;-71
2022/08/21 05:40:43;;;;;;;7.53;3.50;;;;;;;32.02;41.54;100087.28;2094677;28;20067;-71
2022/08/21 05:42:06;;;;;;;11.35;3.47;;;;;;;32.13;40.81;100089.09;2095799;28;20684;-71
2022/08/21 05:43:28;;;;;;;7.32;3.38;;;;;;;32.27;40.14;100086.09;2093519;28;20052;-71
2022/08/21 05:44:50;;;;;;;8.85;3.58;;;;;;;32.42;39.93;100084.78;2104649;28;20044;-71
2022/08/21 05:46:12;;;;;;;7.18;3.10;;;;;;;32.54;39.63;100081.97;2093736;28;20056;-71
2022/08/21 05:47:35;;;;;;;7.32;3.60;;;;;;;32.67;39.41;100089.03;2096585;28;20143;-70
2022/08/21 05:48:57;;;;;;;8.02;3.13;;;;;;;32.78;39.10;100088.06;2101478;28;20048;-71
2022/08/21 05:50:19;;;;;;;9.15;3.38;;;;;;;32.94;38.64;100085.75;2099658;28;20032;-71
2022/08/21 05:51:42;;;;;;;8.63;2.97;;;;;;;33.13;38.76;100084.97;2101869;28;20083;-71
2022/08/21 05:53:04;;;;;;;6.45;3.10;;;;;;;33.29;38.44;100092.69;2103753;28;20440;-71
2022/08/21 05:54:26;;;;;;;10.20;3.53;;;;;;;33.39;38.08;100090.88;2096390;28;20094;-71
2022/08/21 05:55:51;;;;;;;9.60;3.90;;;;;;;33.50;37.92;100099.84;2089406;28;20080;-71
2022/08/21 05:57:13;;;;;;;8.57;3.58;;;;;;;33.63;37.55;100092.25;2094535;28;20052;-71
2022/08/21 05:58:35;;;;;;;8.18;3.40;;;;;;;33.76;37.56;100091.16;2103627;28;20122;-71
2022/08/21 05:59:57;;;;;;;8.02;3.35;;;;;;;33.89;37.35;100095.38;2093640;28;20058;-71
2022/08/21 06:01:19;;;;;;;7.40;3.50;;;;;;;33.99;37.24;100099.00;2090776;28;20081;-71
2022/08/21 06:02:41;;;;;;;6.55;3.38;;;;;;;34.06;37.07;100090.22;2094764;28;20142;-72
2022/08/21 06:04:03;;;;;;;10.07;3.75;;;;;;;34.13;37.05;100094.13;2089663;28;20045;-71
2022/08/21 06:05:26;;;;;;;10.98;3.55;;;;;;;34.22;37.05;100098.75;2090429;28;20064;-72
2022/08/21 06:06:48;;;;;;;9.70;4.00;;;;;;;34.34;37.12;100097.59;2096736;28;20558;-72
2022/08/21 06:08:10;;;;;;;10.57;3.38;;;;;;;34.47;37.06;100103.66;2100449;28;20048;-71
2022/08/21 06:09:33;;;;;;;12.25;3.38;;;;;;;34.62;37.09;100101.34;2104340;28;20051;-72
2022/08/21 06:10:59;;;;;;;7.60;3.28;;;;;;;34.75;36.85;100099.19;2096376;28;20045;-72
2022/08/21 06:12:22;;;;;;;12.82;3.88;;;;;;;34.85;36.59;100102.78;2101750;28;20474;-72
2022/08/21 06:13:44;;;;;;;8.80;3.35;;;;;;;34.87;36.56;100098.00;2089670;28;20063;-72
2022/08/21 06:15:07;;;;;;;11.13;3.47;;;;;;;34.88;36.40;100098.84;2096702;28;20094;-72
2022/08/21 06:16:30;;;;;;;9.65;3.90;;;;;;;34.95;36.60;100100.00;2095386;28;20048;-72
2022/08/21 06:17:52;;;;;;;9.75;3.20;;;;;;;35.07;36.58;100093.31;2097905;28;20114;-73
2022/08/21 06:19:15;;;;;;;9.00;3.63;;;;;;;35.17;36.49;100099.66;2082636;28;20077;-71
2022/08/21 06:20:37;;;;;;;9.00;3.70;;;;;;;35.27;35.97;100097.75;2096418;28;20040;-72
2022/08/21 06:22:00;;;;;;;8.35;3.00;;;;;;;35.32;36.16;100087.19;2095196;28;20481;-72
2022/08/21 06:23:21;;;;;;;8.95;3.25;;;;;;;35.38;36.07;100092.06;2095744;28;20079;-72
2022/08/21 06:24:43;;;;;;;;;;;;;;;35.27;36.29;100100.50;2103920;28;20067;-72
2022/08/21 06:26:09;;;;;;;15.07;3.90;;;;;;;35.33;36.58;100091.66;2094748;28;19967;-72